sensor_id;sensor_type;location;lat;lon;timestamp;pressure;altitude;pressure_sealevel;temperature;humidity
81354;BME280;70810;52.038;8.524;2023-09-19T00:00:07;99392.28;;;14.82;90.23
81354;BME280;70810;52.038;8.524;2023-09-19T00:02:33;99395.22;;;14.79;90.13
81354;BME280;70810;52.038;8.524;2023-09-19T00:05:01;99393.97;;;14.83;89.94
81354;BME280;70810;52.038;8.524;2023-09-19T00:07:29;99390.06;;;14.87;89.93
81354;BME280;70810;52.038;8.524;2023-09-19T00:09:55;99402.84;;;14.85;89.88
81354;BME280;70810;52.038;8.524;2023-09-19T00:12:22;99383.44;;;14.80;89.69
81354;BME280;70810;52.038;8.524;2023-09-19T00:14:48;99406.75;;;14.81;89.56
81354;BME280;70810;52.038;8.524;2023-09-19T00:17:17;99413.41;;;14.88;89.70
81354;BME280;70810;52.038;8.524;2023-09-19T00:19:47;99420.84;;;14.85;89.27
81354;BME280;70810;52.038;8.524;2023-09-19T00:22:17;99424.94;;;14.90;89.38
81354;BME280;70810;52.038;8.524;2023-09-19T00:24:44;99418.16;;;14.96;88.81
81354;BME280;70810;52.038;8.524;2023-09-19T00:27:11;99416.31;;;14.97;89.02
81354;BME280;70810;52.038;8.524;2023-09-19T00:29:37;99425.28;;;14.97;88.89
81354;BME280;70810;52.038;8.524;2023-09-19T00:32:07;99414.84;;;15.04;88.43
81354;BME280;70810;52.038;8.524;2023-09-19T00:34:35;99429.81;;;15.08;88.42
81354;BME280;70810;52.038;8.524;2023-09-19T00:37:02;99434.47;;;15.06;88.34
81354;BME280;70810;52.038;8.524;2023-09-19T00:39:29;99430.78;;;15.07;88.36
81354;BME280;70810;52.038;8.524;2023-09-19T00:41:56;99430.78;;;15.07;88.22
81354;BME280;70810;52.038;8.524;2023-09-19T00:44:23;99429.09;;;15.06;88.11
81354;BME280;70810;52.038;8.524;2023-09-19T00:46:50;99433.88;;;15.02;87.90
81354;BME280;70810;52.038;8.524;2023-09-19T00:49:18;99428.97;;;14.96;87.55
81354;BME280;70810;52.038;8.524;2023-09-19T00:51:49;99438.91;;;14.96;87.87
81354;BME280;70810;52.038;8.524;2023-09-19T00:54:17;99441.63;;;14.96;87.78
81354;BME280;70810;52.038;8.524;2023-09-19T00:56:45;99455.00;;;14.97;87.89
81354;BME280;70810;52.038;8.524;2023-09-19T00:59:14;99447.38;;;15.02;87.23
81354;BME280;70810;52.038;8.524;2023-09-19T01:01:43;99455.47;;;15.14;87.04
81354;BME280;70810;52.038;8.524;2023-09-19T01:04:11;99456.94;;;15.18;86.97
81354;BME280;70810;52.038;8.524;2023-09-19T01:06:38;99457.78;;;15.18;86.07
81354;BME280;70810;52.038;8.524;2023-09-19T01:09:06;99450.44;;;15.09;86.32
81354;BME280;70810;52.038;8.524;2023-09-19T01:11:37;99458.56;;;15.09;86.42
81354;BME280;70810;52.038;8.524;2023-09-19T01:14:15;99460.66;;;15.05;86.71
81354;BME280;70810;52.038;8.524;2023-09-19T01:16:50;99453.38;;;14.95;86.34
81354;BME280;70810;52.038;8.524;2023-09-19T01:20:02;99459.16;;;15.01;85.76
81354;BME280;70810;52.038;8.524;2023-09-19T01:22:39;99470.22;;;14.87;86.38
81354;BME280;70810;52.038;8.524;2023-09-19T01:28:35;99468.47;;;15.08;84.09
81354;BME280;70810;52.038;8.524;2023-09-19T01:31:09;99460.75;;;15.15;84.25
81354;BME280;70810;52.038;8.524;2023-09-19T01:33:57;99480.75;;;15.24;83.67
81354;BME280;70810;52.038;8.524;2023-09-19T01:36:26;99490.56;;;15.25;83.63
81354;BME280;70810;52.038;8.524;2023-09-19T01:38:53;99480.13;;;15.20;83.05
81354;BME280;70810;52.038;8.524;2023-09-19T01:41:26;99487.03;;;15.24;82.60
81354;BME280;70810;52.038;8.524;2023-09-19T01:43:53;99491.69;;;15.22;82.26
81354;BME280;70810;52.038;8.524;2023-09-19T01:46:25;99489.38;;;15.18;82.90
81354;BME280;70810;52.038;8.524;2023-09-19T01:49:02;99501.00;;;15.18;83.02
81354;BME280;70810;52.038;8.524;2023-09-19T01:51:34;99492.06;;;15.06;82.34
81354;BME280;70810;52.038;8.524;2023-09-19T01:54:08;99504.59;;;15.07;82.18
81354;BME280;70810;52.038;8.524;2023-09-19T01:56:40;99502.13;;;15.04;81.39
81354;BME280;70810;52.038;8.524;2023-09-19T01:59:12;99503.22;;;15.02;81.68
81354;BME280;70810;52.038;8.524;2023-09-19T02:01:42;99509.50;;;15.02;81.91
81354;BME280;70810;52.038;8.524;2023-09-19T02:04:11;99513.66;;;15.06;81.66
81354;BME280;70810;52.038;8.524;2023-09-19T02:06:39;99508.03;;;15.09;81.76
81354;BME280;70810;52.038;8.524;2023-09-19T02:09:06;99509.59;;;15.12;82.38
81354;BME280;70810;52.038;8.524;2023-09-19T02:11:34;99509.88;;;15.09;82.56
81354;BME280;70810;52.038;8.524;2023-09-19T02:14:02;99503.97;;;15.04;82.49
81354;BME280;70810;52.038;8.524;2023-09-19T02:16:29;99513.06;;;15.14;82.34
81354;BME280;70810;52.038;8.524;2023-09-19T02:18:57;99499.91;;;15.09;82.26
81354;BME280;70810;52.038;8.524;2023-09-19T02:21:25;99522.63;;;15.18;82.26
81354;BME280;70810;52.038;8.524;2023-09-19T02:23:54;99519.06;;;15.29;82.31
81354;BME280;70810;52.038;8.524;2023-09-19T02:26:21;99522.38;;;15.21;82.99
81354;BME280;70810;52.038;8.524;2023-09-19T02:28:50;99528.78;;;15.09;82.50
81354;BME280;70810;52.038;8.524;2023-09-19T02:31:16;99526.09;;;15.09;82.04
81354;BME280;70810;52.038;8.524;2023-09-19T02:33:43;99524.09;;;15.11;82.10
81354;BME280;70810;52.038;8.524;2023-09-19T02:36:12;99525.31;;;15.07;82.82
81354;BME280;70810;52.038;8.524;2023-09-19T02:38:43;99510.00;;;15.07;82.59
81354;BME280;70810;52.038;8.524;2023-09-19T02:41:09;99517.22;;;15.07;82.90
81354;BME280;70810;52.038;8.524;2023-09-19T02:43:36;99520.56;;;15.10;82.64
81354;BME280;70810;52.038;8.524;2023-09-19T02:46:03;99523.09;;;15.12;82.59
81354;BME280;70810;52.038;8.524;2023-09-19T02:48:30;99529.00;;;15.17;82.49
81354;BME280;70810;52.038;8.524;2023-09-19T02:50:57;99523.50;;;15.07;82.91
81354;BME280;70810;52.038;8.524;2023-09-19T02:53:25;99525.81;;;15.01;82.62
81354;BME280;70810;52.038;8.524;2023-09-19T02:55:52;99526.91;;;14.98;81.92
81354;BME280;70810;52.038;8.524;2023-09-19T02:58:19;99524.59;;;14.94;82.28
81354;BME280;70810;52.038;8.524;2023-09-19T03:00:46;99517.94;;;14.86;82.40
81354;BME280;70810;52.038;8.524;2023-09-19T03:03:15;99525.56;;;14.92;82.24
81354;BME280;70810;52.038;8.524;2023-09-19T03:05:44;99534.38;;;14.83;82.07
81354;BME280;70810;52.038;8.524;2023-09-19T03:08:12;99532.22;;;14.88;81.98
81354;BME280;70810;52.038;8.524;2023-09-19T03:10:46;99531.44;;;14.86;82.18
81354;BME280;70810;52.038;8.524;2023-09-19T03:13:13;99537.06;;;14.83;82.06
81354;BME280;70810;52.038;8.524;2023-09-19T03:15:41;99537.94;;;14.72;82.13
81354;BME280;70810;52.038;8.524;2023-09-19T03:18:10;99548.72;;;14.72;80.93
81354;BME280;70810;52.038;8.524;2023-09-19T03:20:38;99549.09;;;14.79;81.59
81354;BME280;70810;52.038;8.524;2023-09-19T03:23:04;99548.38;;;14.77;81.16
81354;BME280;70810;52.038;8.524;2023-09-19T03:25:33;99548.88;;;14.82;82.11
81354;BME280;70810;52.038;8.524;2023-09-19T03:28:02;99549.97;;;14.80;81.30
81354;BME280;70810;52.038;8.524;2023-09-19T03:30:31;99556.44;;;14.66;81.15
81354;BME280;70810;52.038;8.524;2023-09-19T03:32:58;99571.09;;;14.50;82.04
81354;BME280;70810;52.038;8.524;2023-09-19T03:35:25;99561.00;;;14.41;82.09
81354;BME280;70810;52.038;8.524;2023-09-19T03:37:52;99558.88;;;14.33;82.27
81354;BME280;70810;52.038;8.524;2023-09-19T03:40:20;99559.38;;;14.39;82.97
81354;BME280;70810;52.038;8.524;2023-09-19T03:42:47;99560.38;;;14.38;82.39
81354;BME280;70810;52.038;8.524;2023-09-19T03:45:19;99558.88;;;14.33;81.80
81354;BME280;70810;52.038;8.524;2023-09-19T03:47:50;99559.00;;;14.32;81.70
81354;BME280;70810;52.038;8.524;2023-09-19T03:50:24;99549.66;;;14.25;82.67
81354;BME280;70810;52.038;8.524;2023-09-19T03:53:06;99560.00;;;14.42;81.87
81354;BME280;70810;52.038;8.524;2023-09-19T03:56:01;99555.34;;;14.33;81.95
81354;BME280;70810;52.038;8.524;2023-09-19T03:58:43;99568.19;;;14.29;82.00
81354;BME280;70810;52.038;8.524;2023-09-19T04:01:11;99566.97;;;14.33;81.99
81354;BME280;70810;52.038;8.524;2023-09-19T04:03:38;99557.63;;;14.26;82.26
81354;BME280;70810;52.038;8.524;2023-09-19T04:06:12;99564.59;;;14.17;82.30
81354;BME280;70810;52.038;8.524;2023-09-19T04:08:39;99571.66;;;14.07;83.08
81354;BME280;70810;52.038;8.524;2023-09-19T04:11:06;99562.53;;;13.97;83.22
81354;BME280;70810;52.038;8.524;2023-09-19T04:13:32;99567.16;;;13.95;82.77
81354;BME280;70810;52.038;8.524;2023-09-19T04:15:59;99570.63;;;13.97;82.58
81354;BME280;70810;52.038;8.524;2023-09-19T04:18:27;99569.00;;;13.94;82.71
81354;BME280;70810;52.038;8.524;2023-09-19T04:20:56;99572.31;;;13.74;83.61
81354;BME280;70810;52.038;8.524;2023-09-19T04:23:22;99580.38;;;13.74;83.26
81354;BME280;70810;52.038;8.524;2023-09-19T04:25:49;99581.75;;;13.79;83.00
81354;BME280;70810;52.038;8.524;2023-09-19T04:28:16;99586.09;;;13.69;82.71
81354;BME280;70810;52.038;8.524;2023-09-19T04:30:43;99584.28;;;13.70;82.88
81354;BME280;70810;52.038;8.524;2023-09-19T04:33:09;99591.50;;;13.69;83.20
81354;BME280;70810;52.038;8.524;2023-09-19T04:35:38;99588.50;;;13.61;82.55
81354;BME280;70810;52.038;8.524;2023-09-19T04:38:07;99583.47;;;13.56;82.17
81354;BME280;70810;52.038;8.524;2023-09-19T04:40:38;99596.25;;;13.66;81.25
81354;BME280;70810;52.038;8.524;2023-09-19T04:43:05;99593.25;;;13.57;81.68
81354;BME280;70810;52.038;8.524;2023-09-19T04:45:33;99606.06;;;13.54;82.28
81354;BME280;70810;52.038;8.524;2023-09-19T04:47:59;99601.44;;;13.56;82.24
81354;BME280;70810;52.038;8.524;2023-09-19T04:50:31;99602.13;;;13.47;81.84
81354;BME280;70810;52.038;8.524;2023-09-19T04:52:59;99607.72;;;13.43;81.74
81354;BME280;70810;52.038;8.524;2023-09-19T04:55:26;99608.69;;;13.42;81.37
81354;BME280;70810;52.038;8.524;2023-09-19T04:57:55;99614.38;;;13.51;81.14
81354;BME280;70810;52.038;8.524;2023-09-19T05:00:22;99634.66;;;13.56;80.85
81354;BME280;70810;52.038;8.524;2023-09-19T05:02:50;99633.25;;;13.64;79.82
81354;BME280;70810;52.038;8.524;2023-09-19T05:05:18;99638.53;;;13.65;80.69
81354;BME280;70810;52.038;8.524;2023-09-19T05:07:46;99629.16;;;13.58;80.77
81354;BME280;70810;52.038;8.524;2023-09-19T05:10:14;99633.47;;;13.48;80.70
81354;BME280;70810;52.038;8.524;2023-09-19T05:12:41;99633.25;;;13.51;81.26
81354;BME280;70810;52.038;8.524;2023-09-19T05:15:10;99628.19;;;13.46;81.02
81354;BME280;70810;52.038;8.524;2023-09-19T05:17:37;99621.94;;;13.46;80.11
81354;BME280;70810;52.038;8.524;2023-09-19T05:20:05;99615.25;;;13.38;80.93
81354;BME280;70810;52.038;8.524;2023-09-19T05:22:46;99627.41;;;13.31;80.99
81354;BME280;70810;52.038;8.524;2023-09-19T05:25:14;99630.75;;;13.22;80.82
81354;BME280;70810;52.038;8.524;2023-09-19T05:27:57;99641.50;;;13.22;81.01
81354;BME280;70810;52.038;8.524;2023-09-19T05:30:24;99655.13;;;13.20;80.77
81354;BME280;70810;52.038;8.524;2023-09-19T05:32:54;99648.63;;;13.23;80.57
81354;BME280;70810;52.038;8.524;2023-09-19T05:35:21;99669.22;;;13.24;81.58
81354;BME280;70810;52.038;8.524;2023-09-19T05:37:48;99673.22;;;13.31;80.76
81354;BME280;70810;52.038;8.524;2023-09-19T05:40:24;99670.50;;;13.95;78.07
81354;BME280;70810;52.038;8.524;2023-09-19T05:43:01;99678.38;;;14.60;75.92
81354;BME280;70810;52.038;8.524;2023-09-19T05:46:10;99682.66;;;15.22;72.51
81354;BME280;70810;52.038;8.524;2023-09-19T05:48:53;99678.78;;;16.16;69.90
81354;BME280;70810;52.038;8.524;2023-09-19T05:51:21;99692.03;;;16.86;66.39
81354;BME280;70810;52.038;8.524;2023-09-19T05:53:48;99685.16;;;17.66;63.71
81354;BME280;70810;52.038;8.524;2023-09-19T05:56:16;99690.91;;;17.73;62.45
81354;BME280;70810;52.038;8.524;2023-09-19T05:58:44;99695.00;;;17.67;62.66
81354;BME280;70810;52.038;8.524;2023-09-19T06:01:11;99708.16;;;17.93;61.93
81354;BME280;70810;52.038;8.524;2023-09-19T06:03:38;99703.91;;;18.60;60.56
81354;BME280;70810;52.038;8.524;2023-09-19T06:06:05;99699.13;;;19.03;58.43
81354;BME280;70810;52.038;8.524;2023-09-19T06:08:34;99691.84;;;19.60;56.70
81354;BME280;70810;52.038;8.524;2023-09-19T06:11:02;99689.75;;;20.01;54.99
81354;BME280;70810;52.038;8.524;2023-09-19T06:13:38;99688.03;;;20.00;55.42
81354;BME280;70810;52.038;8.524;2023-09-19T06:16:07;99675.09;;;19.74;55.48
81354;BME280;70810;52.038;8.524;2023-09-19T06:18:35;99692.97;;;19.87;54.99
81354;BME280;70810;52.038;8.524;2023-09-19T06:21:04;99687.34;;;19.31;56.37
81354;BME280;70810;52.038;8.524;2023-09-19T06:23:37;99689.75;;;20.29;53.46
81354;BME280;70810;52.038;8.524;2023-09-19T06:26:24;99686.31;;;19.52;55.53
81354;BME280;70810;52.038;8.524;2023-09-19T06:28:53;99679.06;;;19.90;54.69
81354;BME280;70810;52.038;8.524;2023-09-19T06:31:21;99674.75;;;20.25;53.18
81354;BME280;70810;52.038;8.524;2023-09-19T06:33:51;99696.16;;;20.83;51.99
81354;BME280;70810;52.038;8.524;2023-09-19T06:36:17;99686.50;;;20.71;51.89
81354;BME280;70810;52.038;8.524;2023-09-19T06:38:45;99678.19;;;20.17;52.75
81354;BME280;70810;52.038;8.524;2023-09-19T06:41:12;99683.16;;;20.49;52.36
81354;BME280;70810;52.038;8.524;2023-09-19T06:43:41;99691.25;;;21.05;51.49
81354;BME280;70810;52.038;8.524;2023-09-19T06:46:09;99683.78;;;20.43;52.24
81354;BME280;70810;52.038;8.524;2023-09-19T06:48:38;99682.81;;;18.93;56.45
81354;BME280;70810;52.038;8.524;2023-09-19T06:51:05;99685.63;;;18.62;57.73
81354;BME280;70810;52.038;8.524;2023-09-19T06:53:33;99689.56;;;18.29;58.53
81354;BME280;70810;52.038;8.524;2023-09-19T06:56:02;99678.44;;;17.39;61.64
81354;BME280;70810;52.038;8.524;2023-09-19T06:58:32;99682.88;;;17.40;61.32
81354;BME280;70810;52.038;8.524;2023-09-19T07:01:02;99694.53;;;16.66;63.53
81354;BME280;70810;52.038;8.524;2023-09-19T07:03:31;99695.56;;;16.54;63.77
81354;BME280;70810;52.038;8.524;2023-09-19T07:05:59;99707.59;;;16.61;64.55
81354;BME280;70810;52.038;8.524;2023-09-19T07:08:28;99703.16;;;15.94;66.23
81354;BME280;70810;52.038;8.524;2023-09-19T07:16:31;99709.69;;;16.02;66.54
81354;BME280;70810;52.038;8.524;2023-09-19T07:19:42;99708.41;;;15.95;66.46
81354;BME280;70810;52.038;8.524;2023-09-19T07:22:26;99720.84;;;15.75;67.69
81354;BME280;70810;52.038;8.524;2023-09-19T07:24:56;99717.66;;;15.81;67.97
81354;BME280;70810;52.038;8.524;2023-09-19T07:27:43;99733.63;;;16.30;65.91
81354;BME280;70810;52.038;8.524;2023-09-19T07:30:30;99728.19;;;16.96;64.44
81354;BME280;70810;52.038;8.524;2023-09-19T07:32:59;99740.25;;;16.92;64.51
81354;BME280;70810;52.038;8.524;2023-09-19T07:35:29;99735.50;;;17.59;62.12
81354;BME280;70810;52.038;8.524;2023-09-19T07:41:01;99741.13;;;18.69;59.24
81354;BME280;70810;52.038;8.524;2023-09-19T07:43:28;99742.75;;;19.30;56.74
81354;BME280;70810;52.038;8.524;2023-09-19T07:45:55;99741.16;;;19.57;55.28
81354;BME280;70810;52.038;8.524;2023-09-19T07:48:22;99729.44;;;18.88;57.44
81354;BME280;70810;52.038;8.524;2023-09-19T07:50:51;99737.81;;;18.66;58.27
81354;BME280;70810;52.038;8.524;2023-09-19T07:53:18;99738.78;;;18.45;59.20
81354;BME280;70810;52.038;8.524;2023-09-19T07:55:50;99746.50;;;18.50;58.48
81354;BME280;70810;52.038;8.524;2023-09-19T07:58:48;99741.16;;;17.98;60.78
81354;BME280;70810;52.038;8.524;2023-09-19T08:01:26;99733.56;;;17.70;61.82
81354;BME280;70810;52.038;8.524;2023-09-19T08:03:55;99736.84;;;17.43;62.18
81354;BME280;70810;52.038;8.524;2023-09-19T08:06:25;99740.91;;;17.17;63.12
81354;BME280;70810;52.038;8.524;2023-09-19T08:08:55;99726.94;;;16.56;65.34
81354;BME280;70810;52.038;8.524;2023-09-19T08:11:23;99730.94;;;16.30;66.82
81354;BME280;70810;52.038;8.524;2023-09-19T08:13:50;99734.13;;;16.35;67.05
81354;BME280;70810;52.038;8.524;2023-09-19T08:16:19;99730.75;;;16.54;65.59
81354;BME280;70810;52.038;8.524;2023-09-19T08:18:48;99734.66;;;16.61;65.55
81354;BME280;70810;52.038;8.524;2023-09-19T08:21:21;99746.41;;;16.50;66.55
81354;BME280;70810;52.038;8.524;2023-09-19T08:23:52;99734.78;;;16.59;65.37
81354;BME280;70810;52.038;8.524;2023-09-19T08:26:19;99736.16;;;16.54;66.32
81354;BME280;70810;52.038;8.524;2023-09-19T08:28:47;99749.09;;;16.62;65.41
81354;BME280;70810;52.038;8.524;2023-09-19T08:31:14;99749.75;;;16.75;65.54
81354;BME280;70810;52.038;8.524;2023-09-19T08:33:43;99755.41;;;16.94;64.70
81354;BME280;70810;52.038;8.524;2023-09-19T08:36:10;99746.25;;;17.07;64.12
81354;BME280;70810;52.038;8.524;2023-09-19T08:38:37;99755.44;;;17.15;64.13
81354;BME280;70810;52.038;8.524;2023-09-19T08:41:07;99764.31;;;17.18;64.23
81354;BME280;70810;52.038;8.524;2023-09-19T08:43:38;99763.78;;;16.91;64.96
81354;BME280;70810;52.038;8.524;2023-09-19T08:46:10;99762.81;;;16.92;64.75
81354;BME280;70810;52.038;8.524;2023-09-19T08:48:42;99767.84;;;17.29;64.46
81354;BME280;70810;52.038;8.524;2023-09-19T08:51:18;99768.03;;;17.38;63.18
81354;BME280;70810;52.038;8.524;2023-09-19T08:53:55;99759.19;;;17.57;63.50
81354;BME280;70810;52.038;8.524;2023-09-19T08:56:29;99768.56;;;17.52;62.43
81354;BME280;70810;52.038;8.524;2023-09-19T08:59:02;99755.53;;;17.46;63.29
81354;BME280;70810;52.038;8.524;2023-09-19T09:01:31;99765.09;;;17.08;64.65
81354;BME280;70810;52.038;8.524;2023-09-19T09:04:03;99771.78;;;16.93;64.79
81354;BME280;70810;52.038;8.524;2023-09-19T09:06:40;99769.91;;;17.05;64.32
81354;BME280;70810;52.038;8.524;2023-09-19T09:09:10;99754.81;;;16.79;64.96
81354;BME280;70810;52.038;8.524;2023-09-19T09:11:40;99767.50;;;17.23;63.60
81354;BME280;70810;52.038;8.524;2023-09-19T09:14:07;99773.94;;;17.10;64.39
81354;BME280;70810;52.038;8.524;2023-09-19T09:16:33;99782.00;;;17.01;63.78
81354;BME280;70810;52.038;8.524;2023-09-19T09:19:02;99770.53;;;16.97;65.11
81354;BME280;70810;52.038;8.524;2023-09-19T09:21:32;99756.22;;;17.06;63.68
81354;BME280;70810;52.038;8.524;2023-09-19T09:24:26;99760.72;;;17.17;63.93
81354;BME280;70810;52.038;8.524;2023-09-19T09:26:55;99766.88;;;17.19;63.80
81354;BME280;70810;52.038;8.524;2023-09-19T09:29:41;99775.53;;;17.13;64.17
81354;BME280;70810;52.038;8.524;2023-09-19T09:32:22;99772.13;;;17.11;63.94
81354;BME280;70810;52.038;8.524;2023-09-19T09:34:55;99764.72;;;17.13;63.79
81354;BME280;70810;52.038;8.524;2023-09-19T09:37:24;99765.94;;;17.09;63.71
81354;BME280;70810;52.038;8.524;2023-09-19T09:39:55;99757.19;;;17.59;63.51
81354;BME280;70810;52.038;8.524;2023-09-19T09:46:12;99761.75;;;17.37;62.67
81354;BME280;70810;52.038;8.524;2023-09-19T09:49:00;99750.91;;;17.37;62.13
81354;BME280;70810;52.038;8.524;2023-09-19T09:52:04;99758.44;;;17.33;62.88
81354;BME280;70810;52.038;8.524;2023-09-19T09:54:58;99750.19;;;17.35;62.24
81354;BME280;70810;52.038;8.524;2023-09-19T09:57:34;99764.63;;;17.57;62.01
81354;BME280;70810;52.038;8.524;2023-09-19T10:00:03;99741.31;;;17.96;61.39
81354;BME280;70810;52.038;8.524;2023-09-19T10:02:46;99761.63;;;17.60;60.75
81354;BME280;70810;52.038;8.524;2023-09-19T10:05:18;99754.16;;;17.52;61.96
81354;BME280;70810;52.038;8.524;2023-09-19T10:08:11;99754.13;;;17.10;62.23
81354;BME280;70810;52.038;8.524;2023-09-19T10:10:44;99753.16;;;17.32;61.82
81354;BME280;70810;52.038;8.524;2023-09-19T10:13:20;99764.72;;;17.34;60.60
81354;BME280;70810;52.038;8.524;2023-09-19T10:15:51;99762.69;;;17.47;61.00
81354;BME280;70810;52.038;8.524;2023-09-19T10:18:22;99760.94;;;17.46;60.54
81354;BME280;70810;52.038;8.524;2023-09-19T10:20:51;99761.47;;;17.61;59.53
81354;BME280;70810;52.038;8.524;2023-09-19T10:23:19;99770.59;;;17.81;60.08
81354;BME280;70810;52.038;8.524;2023-09-19T10:25:49;99757.59;;;17.96;59.36
81354;BME280;70810;52.038;8.524;2023-09-19T10:28:18;99758.25;;;17.88;59.11
81354;BME280;70810;52.038;8.524;2023-09-19T10:30:48;99766.25;;;18.11;59.45
81354;BME280;70810;52.038;8.524;2023-09-19T10:33:16;99763.34;;;18.03;59.43
81354;BME280;70810;52.038;8.524;2023-09-19T10:35:47;99762.47;;;18.02;58.35
81354;BME280;70810;52.038;8.524;2023-09-19T10:38:17;99770.44;;;18.25;58.07
81354;BME280;70810;52.038;8.524;2023-09-19T10:40:49;99768.13;;;18.20;59.06
81354;BME280;70810;52.038;8.524;2023-09-19T10:43:17;99772.13;;;18.16;57.95
81354;BME280;70810;52.038;8.524;2023-09-19T10:45:45;99769.28;;;17.97;59.31
81354;BME280;70810;52.038;8.524;2023-09-19T10:48:16;99758.81;;;18.13;59.21
81354;BME280;70810;52.038;8.524;2023-09-19T10:50:50;99759.28;;;17.97;59.59
81354;BME280;70810;52.038;8.524;2023-09-19T10:53:18;99753.59;;;18.00;58.40
81354;BME280;70810;52.038;8.524;2023-09-19T10:55:52;99758.25;;;17.88;59.66
81354;BME280;70810;52.038;8.524;2023-09-19T10:58:28;99766.38;;;17.88;59.67
81354;BME280;70810;52.038;8.524;2023-09-19T11:00:59;99755.50;;;18.10;60.34
81354;BME280;70810;52.038;8.524;2023-09-19T11:03:34;99742.44;;;18.34;58.46
81354;BME280;70810;52.038;8.524;2023-09-19T11:06:19;99751.44;;;18.25;58.32
81354;BME280;70810;52.038;8.524;2023-09-19T11:08:57;99743.06;;;18.07;59.62
81354;BME280;70810;52.038;8.524;2023-09-19T11:11:45;99747.59;;;17.97;60.28
81354;BME280;70810;52.038;8.524;2023-09-19T11:14:37;99746.81;;;18.16;59.38
81354;BME280;70810;52.038;8.524;2023-09-19T11:17:32;99753.91;;;18.48;58.19
81354;BME280;70810;52.038;8.524;2023-09-19T11:20:24;99751.91;;;18.50;58.88
81354;BME280;70810;52.038;8.524;2023-09-19T11:23:25;99742.81;;;18.60;58.34
81354;BME280;70810;52.038;8.524;2023-09-19T11:25:54;99735.50;;;18.41;58.30
81354;BME280;70810;52.038;8.524;2023-09-19T11:28:28;99714.72;;;18.31;59.13
81354;BME280;70810;52.038;8.524;2023-09-19T11:30:57;99734.97;;;18.67;59.35
81354;BME280;70810;52.038;8.524;2023-09-19T11:33:25;99734.63;;;18.51;58.35
81354;BME280;70810;52.038;8.524;2023-09-19T11:36:03;99724.31;;;18.35;58.32
81354;BME280;70810;52.038;8.524;2023-09-19T11:39:01;99732.81;;;18.61;57.75
81354;BME280;70810;52.038;8.524;2023-09-19T11:41:38;99738.19;;;19.01;57.57
81354;BME280;70810;52.038;8.524;2023-09-19T11:44:33;99727.16;;;19.03;55.68
81354;BME280;70810;52.038;8.524;2023-09-19T11:47:04;99732.28;;;19.16;54.52
81354;BME280;70810;52.038;8.524;2023-09-19T11:49:42;99715.69;;;19.38;53.99
81354;BME280;70810;52.038;8.524;2023-09-19T11:52:11;99721.50;;;19.53;54.09
81354;BME280;70810;52.038;8.524;2023-09-19T11:54:55;99717.66;;;19.46;53.60
81354;BME280;70810;52.038;8.524;2023-09-19T11:57:24;99722.13;;;19.28;54.86
81354;BME280;70810;52.038;8.524;2023-09-19T11:59:51;99733.16;;;19.26;54.14
81354;BME280;70810;52.038;8.524;2023-09-19T12:02:31;99731.44;;;19.35;54.29
81354;BME280;70810;52.038;8.524;2023-09-19T12:05:04;99739.13;;;19.49;53.06
81354;BME280;70810;52.038;8.524;2023-09-19T12:07:42;99734.72;;;19.38;52.10
81354;BME280;70810;52.038;8.524;2023-09-19T12:10:10;99737.53;;;19.56;52.15
81354;BME280;70810;52.038;8.524;2023-09-19T12:12:47;99732.84;;;19.49;52.19
81354;BME280;70810;52.038;8.524;2023-09-19T12:15:15;99737.31;;;19.11;53.66
81354;BME280;70810;52.038;8.524;2023-09-19T12:17:41;99731.59;;;19.33;53.47
81354;BME280;70810;52.038;8.524;2023-09-19T12:20:42;99718.69;;;19.35;53.36
81354;BME280;70810;52.038;8.524;2023-09-19T12:23:21;99719.13;;;19.41;53.55
81354;BME280;70810;52.038;8.524;2023-09-19T12:26:13;99722.25;;;19.55;54.02
81354;BME280;70810;52.038;8.524;2023-09-19T12:28:41;99715.22;;;19.53;53.59
81354;BME280;70810;52.038;8.524;2023-09-19T12:34:11;99710.59;;;19.73;53.62
81354;BME280;70810;52.038;8.524;2023-09-19T12:37:02;99708.78;;;19.64;52.30
81354;BME280;70810;52.038;8.524;2023-09-19T12:39:30;99705.03;;;19.55;53.21
81354;BME280;70810;52.038;8.524;2023-09-19T12:42:03;99706.66;;;19.38;51.91
81354;BME280;70810;52.038;8.524;2023-09-19T12:44:35;99701.81;;;19.42;51.67
81354;BME280;70810;52.038;8.524;2023-09-19T12:47:09;99708.56;;;19.18;51.53
81354;BME280;70810;52.038;8.524;2023-09-19T12:49:36;99703.13;;;19.18;51.11
81354;BME280;70810;52.038;8.524;2023-09-19T12:52:25;99705.66;;;19.29;52.64
81354;BME280;70810;52.038;8.524;2023-09-19T12:54:52;99684.53;;;19.13;50.79
81354;BME280;70810;52.038;8.524;2023-09-19T12:57:25;99692.25;;;19.18;52.40
81354;BME280;70810;52.038;8.524;2023-09-19T12:59:58;99702.22;;;19.47;51.97
81354;BME280;70810;52.038;8.524;2023-09-19T13:03:11;99691.91;;;19.50;51.09
81354;BME280;70810;52.038;8.524;2023-09-19T13:05:53;99689.34;;;19.29;52.76
81354;BME280;70810;52.038;8.524;2023-09-19T13:08:25;99687.97;;;18.86;51.89
81354;BME280;70810;52.038;8.524;2023-09-19T13:11:07;99693.09;;;19.18;51.25
81354;BME280;70810;52.038;8.524;2023-09-19T13:13:44;99689.34;;;19.29;52.05
81354;BME280;70810;52.038;8.524;2023-09-19T13:16:17;99695.63;;;19.39;52.07
81354;BME280;70810;52.038;8.524;2023-09-19T13:18:53;99662.16;;;19.29;51.85
81354;BME280;70810;52.038;8.524;2023-09-19T13:21:31;99673.78;;;19.12;51.68
81354;BME280;70810;52.038;8.524;2023-09-19T13:24:20;99671.63;;;19.25;52.45
81354;BME280;70810;52.038;8.524;2023-09-19T13:27:02;99684.06;;;19.28;52.51
81354;BME280;70810;52.038;8.524;2023-09-19T13:29:30;99685.66;;;19.30;52.90
81354;BME280;70810;52.038;8.524;2023-09-19T13:32:08;99697.50;;;19.49;52.40
81354;BME280;70810;52.038;8.524;2023-09-19T13:34:36;99698.22;;;19.31;52.56
81354;BME280;70810;52.038;8.524;2023-09-19T13:37:09;99695.63;;;19.49;51.30
81354;BME280;70810;52.038;8.524;2023-09-19T13:39:40;99694.47;;;19.52;51.79
81354;BME280;70810;52.038;8.524;2023-09-19T13:42:12;99685.00;;;19.56;51.84
81354;BME280;70810;52.038;8.524;2023-09-19T13:44:55;99682.59;;;19.43;51.19